Time;durP1;ratioP1;P1;durP2;ratioP2;P2;SDS_P1;SDS_P2;PMS_P1;PMS_P2;Temp;Humidity;BMP_temperature;BMP_pressure;BME280_temperature;BME280_humidity;BME280_pressure;Samples;Min_cycle;Max_cycle;Signal;HPM_P1;HPM_P2
2024/02/09 00:02:06;;;;;;;11.05;2.65;;;;;;;;;;5051637;28;20088;-77
2024/02/09 00:04:38;;;;;;;8.90;2.20;;;;;;;;;;5067659;28;20539;-77
2024/02/09 00:07:09;;;;;;;12.13;2.90;;;;;;;;;;5067912;28;20056;-77
2024/02/09 00:09:39;;;;;;;13.30;2.53;;;;;;;;;;5035493;28;20096;-77
2024/02/09 00:12:10;;;;;;;;;;;;;;;;;;5052292;28;20469;-77
2024/02/09 00:14:42;;;;;;;9.52;2.92;;;;;;;;;;5051426;28;20306;-77
2024/02/09 00:17:10;;;;;;;8.30;2.50;;;;;;;;;;5051740;28;20421;-78
2024/02/09 00:19:40;;;;;;;11.15;3.50;;;;;;;;;;5051648;28;20049;-78
2024/02/09 00:22:11;;;;;;;14.07;3.55;;;;;;;;;;5051475;28;20049;-77
2024/02/09 00:24:42;;;;;;;13.35;2.88;;;;;;;;;;5035860;28;20049;-77
2024/02/09 00:27:11;;;;;;;11.80;3.03;;;;;;;;;;5067823;28;20076;-77
2024/02/09 00:29:43;;;;;;;20.48;5.43;;;;;;;;;;5067211;28;20057;-77
2024/02/09 00:32:14;;;;;;;11.07;4.03;;;;;;;;;;5051060;28;20407;-77
2024/02/09 00:34:45;;;;;;;11.48;4.97;;;;;;;;;;5034860;28;20052;-77
2024/02/09 00:37:13;;;;;;;15.63;3.08;;;;;;;;;;5035295;28;20080;-77
2024/02/09 00:39:42;;;;;;;12.48;3.10;;;;;;;;;;5067336;28;20083;-77
2024/02/09 00:42:16;;;;;;;11.50;2.95;;;;;;;;;;5051507;28;20056;-77
2024/02/09 00:44:50;;;;;;;7.32;2.67;;;;;;;;;;5051652;28;20049;-77
2024/02/09 00:47:24;;;;;;;16.42;3.90;;;;;;;;;;5066949;28;20482;-77
2024/02/09 00:49:57;;;;;;;8.50;3.00;;;;;;;;;;5066848;28;20450;-77
2024/02/09 00:52:29;;;;;;;7.75;2.47;;;;;;;;;;5067168;28;20542;-77
2024/02/09 00:54:57;;;;;;;9.18;3.28;;;;;;;;;;5050883;28;20080;-77
2024/02/09 00:57:25;;;;;;;12.27;3.20;;;;;;;;;;5034511;28;20495;-77
2024/02/09 00:59:55;;;;;;;12.90;3.17;;;;;;;;;;5067106;28;20494;-77
2024/02/09 01:02:24;;;;;;;10.55;2.97;;;;;;;;;;5034726;28;20152;-77
2024/02/09 01:04:55;;;;;;;15.02;2.95;;;;;;;;;;5050694;28;20418;-77
2024/02/09 01:07:23;;;;;;;12.40;3.90;;;;;;;;;;5067127;28;20053;-77
2024/02/09 01:09:51;;;;;;;9.35;3.53;;;;;;;;;;5034182;28;20080;-77
2024/02/09 02:46:44;;;;;;;9.77;3.50;;;;;;;;;;5052973;28;20136;-78
2024/02/09 03:05:52;;;;;;;10.45;3.15;;;;;;;;;;5053659;28;20095;-77
2024/02/09 03:08:20;;;;;;;9.57;3.10;;;;;;;;;;5054791;28;20502;-77
2024/02/09 03:10:51;;;;;;;7.97;3.08;;;;;;;;;;5054403;28;20045;-77
2024/02/09 03:13:21;;;;;;;6.85;3.28;;;;;;;;;;5038314;28;20056;-77
2024/02/09 03:15:52;;;;;;;8.02;3.33;;;;;;;;;;5070266;28;20045;-77
2024/02/09 03:18:23;;;;;;;8.77;2.72;;;;;;;;;;5069112;28;20053;-78
2024/02/09 03:20:51;;;;;;;10.18;3.22;;;;;;;;;;5052404;28;20461;-77
2024/02/09 03:23:19;;;;;;;10.88;3.38;;;;;;;;;;5068838;28;20503;-77
2024/02/09 03:25:48;;;;;;;8.05;3.28;;;;;;;;;;5068943;28;20052;-77
2024/02/09 03:28:18;;;;;;;8.07;2.58;;;;;;;;;;5052561;28;20487;-77
2024/02/09 03:30:46;;;;;;;10.48;3.05;;;;;;;;;;5069043;28;20144;-77
2024/02/09 03:33:14;;;;;;;8.30;2.90;;;;;;;;;;5038679;28;20393;-77
2024/02/09 03:35:45;;;;;;;10.18;2.75;;;;;;;;;;5035821;28;20083;-77
2024/02/09 03:38:13;;;;;;;6.70;2.72;;;;;;;;;;5052702;28;20072;-77
2024/02/09 03:40:44;;;;;;;7.30;2.72;;;;;;;;;;5068839;28;20056;-77
2024/02/09 03:43:13;;;;;;;9.15;3.25;;;;;;;;;;5063608;28;20053;-77
2024/02/09 03:45:43;;;;;;;7.90;2.42;;;;;;;;;;5049712;28;20060;-77
2024/02/09 03:48:16;;;;;;;6.82;3.05;;;;;;;;;;5052282;28;20049;-77
2024/02/09 03:50:47;;;;;;;6.75;2.25;;;;;;;;;;5052792;28;20099;-77
2024/02/09 03:53:15;;;;;;;6.10;2.53;;;;;;;;;;5060710;28;20057;-77
2024/02/09 03:55:49;;;;;;;4.97;2.08;;;;;;;;;;5060103;28;20139;-78
2024/02/09 03:58:20;;;;;;;6.85;1.92;;;;;;;;;;5052501;28;20092;-78
2024/02/09 04:00:47;;;;;;;1.92;1.42;;;;;;;;;;5068155;28;20048;-78
2024/02/09 04:03:15;;;;;;;4.55;1.70;;;;;;;;;;5035326;28;20461;-78
2024/02/09 04:05:46;;;;;;;2.88;1.70;;;;;;;;;;5067546;28;20053;-79
2024/02/09 04:08:14;;;;;;;7.93;2.17;;;;;;;;;;5068031;28;20080;-78
2024/02/09 04:10:42;;;;;;;4.20;1.35;;;;;;;;;;5040874;28;20060;-78
2024/02/09 04:13:12;;;;;;;2.83;1.73;;;;;;;;;;5058343;28;20118;-78
2024/02/09 04:15:42;;;;;;;3.88;1.35;;;;;;;;;;5043699;28;20060;-77
2024/02/09 04:18:09;;;;;;;3.22;1.55;;;;;;;;;;5068109;28;20422;-77
2024/02/09 04:20:38;;;;;;;7.55;1.50;;;;;;;;;;5067602;28;20140;-78
2024/02/09 04:23:07;;;;;;;5.10;1.77;;;;;;;;;;5051450;28;20053;-78
2024/02/09 04:25:36;;;;;;;3.63;1.35;;;;;;;;;;5067503;28;20048;-78
2024/02/09 04:28:04;;;;;;;5.15;1.52;;;;;;;;;;5067728;28;20473;-78
2024/02/09 04:30:32;;;;;;;4.07;1.40;;;;;;;;;;5067668;28;20045;-78
2024/02/09 04:33:03;;;;;;;3.28;1.30;;;;;;;;;;5067861;28;20110;-78
2024/02/09 04:35:31;;;;;;;6.18;1.30;;;;;;;;;;5034436;28;20053;-78
2024/02/09 04:38:06;;;;;;;3.33;1.38;;;;;;;;;;5067404;28;20081;-78
2024/02/09 04:40:34;;;;;;;3.75;1.50;;;;;;;;;;5052359;28;20140;-77
2024/02/09 04:43:04;;;;;;;3.60;1.80;;;;;;;;;;5067477;28;20131;-78
2024/02/09 04:45:33;;;;;;;5.28;1.55;;;;;;;;;;5067418;28;20051;-78
2024/02/09 04:48:01;;;;;;;2.42;1.38;;;;;;;;;;5051007;28;20088;-78
2024/02/09 04:50:29;;;;;;;6.22;1.77;;;;;;;;;;5051057;28;20048;-78
2024/02/09 04:52:59;;;;;;;4.38;1.73;;;;;;;;;;5034765;28;20049;-78
2024/02/09 04:55:27;;;;;;;3.42;1.55;;;;;;;;;;5050672;28;20059;-78
2024/02/09 04:57:55;;;;;;;5.07;1.80;;;;;;;;;;5066872;28;20414;-78
2024/02/09 05:00:24;;;;;;;4.05;1.33;;;;;;;;;;5067033;28;20044;-78
2024/02/09 05:02:52;;;;;;;3.72;1.85;;;;;;;;;;5067162;28;20045;-78
2024/02/09 05:05:22;;;;;;;3.28;1.67;;;;;;;;;;5067116;28;20052;-79
2024/02/09 05:07:51;;;;;;;8.70;2.20;;;;;;;;;;5067075;28;20067;-78
2024/02/09 05:10:20;;;;;;;6.40;2.15;;;;;;;;;;5066978;28;20148;-78
2024/02/09 05:12:49;;;;;;;6.28;2.33;;;;;;;;;;5050600;28;20064;-78
2024/02/09 05:15:17;;;;;;;5.03;1.85;;;;;;;;;;5050380;28;20091;-78
2024/02/09 05:17:45;;;;;;;5.28;1.50;;;;;;;;;;5066636;28;20056;-78
2024/02/09 05:20:13;;;;;;;4.05;1.77;;;;;;;;;;5050530;28;20503;-79
2024/02/09 05:22:46;;;;;;;5.03;1.58;;;;;;;;;;5066973;28;20048;-78
2024/02/09 05:25:14;;;;;;;3.83;1.48;;;;;;;;;;5050915;28;20053;-78
2024/02/09 05:27:46;;;;;;;5.55;1.58;;;;;;;;;;5050400;28;20473;-78
2024/02/09 05:30:14;;;;;;;2.22;1.40;;;;;;;;;;5050423;28;20053;-78
2024/02/09 05:32:42;;;;;;;4.53;1.30;;;;;;;;;;5066414;28;20136;-78
2024/02/09 05:35:10;;;;;;;2.33;1.05;;;;;;;;;;5069406;28;20067;-78
2024/02/09 05:37:38;;;;;;;2.55;1.08;;;;;;;;;;5080521;28;20114;-78
2024/02/09 05:40:06;;;;;;;4.53;1.02;;;;;;;;;;5052526;28;20514;-78
2024/02/09 05:42:34;;;;;;;5.00;1.00;;;;;;;;;;5034934;28;20056;-79
2024/02/09 05:45:05;;;;;;;2.38;0.98;;;;;;;;;;5067664;28;20136;-78
2024/02/09 05:47:33;;;;;;;2.92;0.95;;;;;;;;;;5066577;28;20087;-78
2024/02/09 05:50:03;;;;;;;3.80;1.45;;;;;;;;;;5050337;28;20068;-78
2024/02/09 05:52:31;;;;;;;1.02;0.95;;;;;;;;;;5066525;28;20052;-78
2024/02/09 05:54:59;;;;;;;2.25;1.00;;;;;;;;;;5050171;28;20144;-78
2024/02/09 05:57:27;;;;;;;1.88;0.80;;;;;;;;;;5066352;28;20057;-79
2024/02/09 05:59:58;;;;;;;2.83;1.45;;;;;;;;;;5033748;28;20529;-78
2024/02/09 06:02:31;;;;;;;3.55;1.85;;;;;;;;;;5033489;28;20530;-78
2024/02/09 06:05:01;;;;;;;5.28;1.65;;;;;;;;;;5050008;28;20045;-78
2024/02/09 06:07:29;;;;;;;2.10;0.95;;;;;;;;;;5050255;28;20052;-78
2024/02/09 06:09:57;;;;;;;2.17;1.10;;;;;;;;;;5050108;28;20517;-78
2024/02/09 06:12:25;;;;;;;5.18;0.90;;;;;;;;;;5033786;28;20103;-78
2024/02/09 06:14:53;;;;;;;2.42;1.52;;;;;;;;;;5050178;28;20577;-78
2024/02/09 06:17:21;;;;;;;1.83;1.15;;;;;;;;;;5046370;28;20059;-78
2024/02/09 06:19:49;;;;;;;1.63;1.00;;;;;;;;;;5048451;28;20049;-78
2024/02/09 06:22:17;;;;;;;2.22;0.93;;;;;;;;;;5050108;28;20056;-78
2024/02/09 06:24:45;;;;;;;2.28;1.10;;;;;;;;;;5050059;28;20045;-78
2024/02/09 06:27:13;;;;;;;3.10;1.10;;;;;;;;;;5049764;28;20132;-78
2024/02/09 06:29:41;;;;;;;2.88;1.45;;;;;;;;;;5068429;28;20418;-78
2024/02/09 06:32:11;;;;;;;1.67;1.13;;;;;;;;;;5053444;28;20438;-78
2024/02/09 06:34:42;;;;;;;1.65;1.08;;;;;;;;;;5069846;28;20514;-78
2024/02/09 06:37:10;;;;;;;1.70;1.00;;;;;;;;;;5070022;28;20059;-78
2024/02/09 06:39:41;;;;;;;2.05;0.80;;;;;;;;;;5050172;28;20491;-78
2024/02/09 06:42:09;;;;;;;2.40;1.25;;;;;;;;;;5069751;28;20129;-78
2024/02/09 06:44:42;;;;;;;1.00;0.50;;;;;;;;;;5053290;28;20140;-78
2024/02/09 06:47:14;;;;;;;0.98;0.70;;;;;;;;;;5069232;28;20132;-78
2024/02/09 06:49:45;;;;;;;1.23;1.00;;;;;;;;;;5069569;28;20139;-78
2024/02/09 06:52:14;;;;;;;1.35;0.65;;;;;;;;;;5053265;28;20052;-78
2024/02/09 06:54:42;;;;;;;3.33;0.93;;;;;;;;;;5069027;28;20582;-78
2024/02/09 06:57:11;;;;;;;1.38;0.80;;;;;;;;;;5053211;28;20098;-78
2024/02/09 06:59:41;;;;;;;1.65;0.80;;;;;;;;;;5071197;28;20430;-78
2024/02/09 07:02:10;;;;;;;2.42;1.00;;;;;;;;;;5054595;28;20053;-79
2024/02/09 07:04:40;;;;;;;2.67;1.23;;;;;;;;;;5053777;28;20044;-78
2024/02/09 07:07:08;;;;;;;1.33;0.68;;;;;;;;;;5069265;28;20049;-78
2024/02/09 07:09:36;;;;;;;0.77;0.68;;;;;;;;;;5069094;28;20123;-78
2024/02/09 07:12:06;;;;;;;2.65;1.42;;;;;;;;;;5053395;28;20132;-78
2024/02/09 07:14:34;;;;;;;0.82;0.60;;;;;;;;;;5069410;28;20063;-78
2024/02/09 07:17:04;;;;;;;2.05;0.90;;;;;;;;;;5069176;28;20060;-78
2024/02/09 07:19:35;;;;;;;1.58;1.00;;;;;;;;;;5036941;28;20137;-78
2024/02/09 07:22:03;;;;;;;4.40;1.00;;;;;;;;;;5052540;28;20051;-78
2024/02/09 07:24:31;;;;;;;2.65;0.93;;;;;;;;;;5052505;28;20049;-78
2024/02/09 07:26:59;;;;;;;1.98;1.00;;;;;;;;;;5036027;28;20087;-78
2024/02/09 07:29:27;;;;;;;2.95;0.80;;;;;;;;;;5052450;28;20457;-77
2024/02/09 07:31:56;;;;;;;2.50;1.10;;;;;;;;;;5035857;28;20564;-78
2024/02/09 07:34:24;;;;;;;2.58;0.80;;;;;;;;;;5052457;28;20088;-78
2024/02/09 07:36:54;;;;;;;3.67;0.93;;;;;;;;;;5068451;28;20499;-78
2024/02/09 07:39:22;;;;;;;1.98;0.75;;;;;;;;;;5052044;28;20144;-78
2024/02/09 07:41:50;;;;;;;2.00;0.50;;;;;;;;;;5051075;28;20491;-78
2024/02/09 07:44:18;;;;;;;2.60;0.98;;;;;;;;;;5038541;28;20049;-78
2024/02/09 07:46:46;;;;;;;5.55;2.13;;;;;;;;;;5053640;28;20570;-78
2024/02/09 07:49:15;;;;;;;6.43;2.97;;;;;;;;;;5052099;28;20053;-78
2024/02/09 07:51:43;;;;;;;6.93;2.50;;;;;;;;;;5068409;28;20060;-78
2024/02/09 07:54:11;;;;;;;5.78;3.50;;;;;;;;;;5068255;28;20461;-78
2024/02/09 07:56:39;;;;;;;5.32;2.72;;;;;;;;;;5068435;28;20059;-78
2024/02/09 07:59:07;;;;;;;4.22;2.25;;;;;;;;;;5068228;28;20494;-78
2024/02/09 08:01:35;;;;;;;5.07;3.00;;;;;;;;;;5068252;28;20057;-78
2024/02/09 08:04:03;;;;;;;4.35;2.22;;;;;;;;;;5035482;28;20049;-78
2024/02/09 08:06:33;;;;;;;3.63;1.73;;;;;;;;;;5068372;28;20131;-78
2024/02/09 08:09:01;;;;;;;5.10;1.90;;;;;;;;;;5054679;28;20049;-77
2024/02/09 08:11:28;;;;;;;3.92;1.75;;;;;;;;;;5051806;28;20041;-78
2024/02/09 08:13:58;;;;;;;3.70;1.67;;;;;;;;;;5069625;28;20454;-78
2024/02/09 08:16:28;;;;;;;5.50;2.40;;;;;;;;;;5087322;28;20410;-78
2024/02/09 08:18:59;;;;;;;3.55;1.80;;;;;;;;;;5086144;28;20085;-78
2024/02/09 08:21:27;;;;;;;4.65;1.35;;;;;;;;;;5074177;28;20075;-78
2024/02/09 08:23:55;;;;;;;2.90;1.70;;;;;;;;;;5089523;28;20053;-78
2024/02/09 08:26:25;;;;;;;3.50;1.40;;;;;;;;;;5061026;28;20056;-78
2024/02/09 08:29:01;;;;;;;3.70;1.13;;;;;;;;;;5047731;28;20461;-78
2024/02/09 08:31:29;;;;;;;2.95;1.60;;;;;;;;;;5051874;28;20045;-78
2024/02/09 08:33:57;;;;;;;2.53;1.00;;;;;;;;;;5051289;28;20505;-78
2024/02/09 08:36:25;;;;;;;3.03;1.35;;;;;;;;;;5034560;28;20051;-78
2024/02/09 08:39:01;;;;;;;3.45;1.70;;;;;;;;;;5051133;28;20056;-78
2024/02/09 08:41:29;;;;;;;2.78;0.90;;;;;;;;;;5051578;28;20063;-78
2024/02/09 08:43:57;;;;;;;2.55;1.50;;;;;;;;;;5034488;28;20049;-78
2024/02/09 08:46:28;;;;;;;2.65;2.10;;;;;;;;;;5034771;28;20044;-78
2024/02/09 08:48:57;;;;;;;4.45;1.75;;;;;;;;;;5052263;28;20055;-78
2024/02/09 08:51:26;;;;;;;2.13;1.50;;;;;;;;;;5089107;28;20048;-78
2024/02/09 08:53:55;;;;;;;2.20;1.13;;;;;;;;;;5091377;28;20061;-78
2024/02/09 08:56:26;;;;;;;3.72;1.00;;;;;;;;;;5079287;28;20170;-78
2024/02/09 08:58:54;;;;;;;4.97;1.02;;;;;;;;;;5052233;28;20052;-78
2024/02/09 09:01:26;;;;;;;1.95;0.70;;;;;;;;;;5051685;28;20131;-78
2024/02/09 09:03:55;;;;;;;4.68;1.33;;;;;;;;;;5067856;28;20576;-78
2024/02/09 09:06:27;;;;;;;4.20;1.60;;;;;;;;;;5066602;28;20045;-79
2024/02/09 09:08:58;;;;;;;2.55;0.95;;;;;;;;;;5050892;28;20167;-78
2024/02/09 09:11:29;;;;;;;4.45;0.90;;;;;;;;;;5035895;28;20111;-78
2024/02/09 09:14:05;;;;;;;1.08;0.70;;;;;;;;;;5029630;28;20056;-78
2024/02/09 09:16:33;;;;;;;3.72;1.15;;;;;;;;;;5052223;28;20144;-78
2024/02/09 09:19:07;;;;;;;4.38;1.02;;;;;;;;;;5050628;28;20053;-78
2024/02/09 09:21:42;;;;;;;3.33;0.90;;;;;;;;;;5050688;28;20095;-78
2024/02/09 09:24:15;;;;;;;1.83;1.05;;;;;;;;;;5067223;28;20049;-77
2024/02/09 09:26:47;;;;;;;2.17;1.27;;;;;;;;;;5049375;28;20057;-77
2024/02/09 09:29:16;;;;;;;2.22;0.90;;;;;;;;;;5066915;28;20495;-78
2024/02/09 09:31:47;;;;;;;1.23;0.82;;;;;;;;;;5067570;28;20048;-78
2024/02/09 09:34:15;;;;;;;1.80;0.93;;;;;;;;;;5037428;28;20059;-78
2024/02/09 09:36:45;;;;;;;3.53;1.02;;;;;;;;;;5040627;28;20490;-78
2024/02/09 09:39:14;;;;;;;2.67;1.10;;;;;;;;;;5067623;28;20503;-78
2024/02/09 09:41:43;;;;;;;2.10;1.20;;;;;;;;;;5051672;28;20511;-78
2024/02/09 09:44:12;;;;;;;1.52;1.20;;;;;;;;;;5066752;28;20045;-78
2024/02/09 09:46:45;;;;;;;2.50;0.85;;;;;;;;;;5066526;28;20084;-78
2024/02/09 09:49:13;;;;;;;;;;;;;;;;;;5067137;28;20063;-78
2024/02/09 09:51:44;;;;;;;1.45;1.00;;;;;;;;;;5050227;28;20372;-78
2024/02/09 09:54:14;;;;;;;3.63;1.08;;;;;;;;;;5050281;28;20499;-78
2024/02/09 09:56:44;;;;;;;1.77;1.02;;;;;;;;;;5050337;28;20088;-78
2024/02/09 09:59:13;;;;;;;2.28;1.30;;;;;;;;;;5066376;28;20126;-78
2024/02/09 10:01:43;;;;;;;1.58;1.10;;;;;;;;;;5066460;28;20057;-78
2024/02/09 10:04:12;;;;;;;2.95;1.55;;;;;;;;;;5052053;28;20049;-78
2024/02/09 10:06:41;;;;;;;2.88;1.33;;;;;;;;;;5053835;28;20490;-78
2024/02/09 10:09:12;;;;;;;3.63;1.00;;;;;;;;;;5054051;28;20060;-78
2024/02/09 10:11:45;;;;;;;1.42;1.25;;;;;;;;;;5069877;28;20479;-78
2024/02/09 10:14:15;;;;;;;3.42;0.90;;;;;;;;;;5054199;28;20053;-78
2024/02/09 10:16:48;;;;;;;1.70;0.90;;;;;;;;;;5070009;28;20049;-78
2024/02/09 10:19:17;;;;;;;2.95;0.95;;;;;;;;;;5069812;28;20059;-78
2024/02/09 10:21:46;;;;;;;3.10;1.00;;;;;;;;;;5070024;28;20049;-78
2024/02/09 10:24:18;;;;;;;2.42;0.98;;;;;;;;;;5054020;28;20499;-78
2024/02/09 10:26:47;;;;;;;3.30;1.45;;;;;;;;;;5037366;28;20132;-78
2024/02/09 10:29:18;;;;;;;3.95;1.35;;;;;;;;;;5054019;28;20081;-78
2024/02/09 10:31:54;;;;;;;1.20;0.70;;;;;;;;;;5069649;28;20435;-78
2024/02/09 10:34:28;;;;;;;3.53;1.35;;;;;;;;;;5069729;28;20049;-78
2024/02/09 10:36:57;;;;;;;2.95;0.85;;;;;;;;;;5045895;28;20057;-78
2024/02/09 10:39:26;;;;;;;1.77;1.00;;;;;;;;;;5069792;28;20048;-78
2024/02/09 10:41:55;;;;;;;2.83;1.10;;;;;;;;;;5069601;28;20136;-78
2024/02/09 10:44:24;;;;;;;2.47;1.17;;;;;;;;;;5069778;28;20092;-78
2024/02/09 10:46:57;;;;;;;3.58;0.60;;;;;;;;;;5053325;28;20128;-78
2024/02/09 10:49:26;;;;;;;2.37;1.07;;;;;;;;;;5053764;28;20044;-78
2024/02/09 10:51:58;;;;;;;1.65;0.90;;;;;;;;;;5069408;28;20288;-78
2024/02/09 10:54:37;;;;;;;2.13;0.90;;;;;;;;;;5069546;28;20053;-78
2024/02/09 10:57:07;;;;;;;1.45;0.93;;;;;;;;;;5069177;28;20141;-78
2024/02/09 10:59:35;;;;;;;1.58;0.85;;;;;;;;;;5069416;28;20053;-78
2024/02/09 11:02:04;;;;;;;4.97;1.10;;;;;;;;;;5036801;28;20084;-78
2024/02/09 11:04:34;;;;;;;7.47;1.70;;;;;;;;;;5082213;28;20056;-78
2024/02/09 11:07:04;;;;;;;1.95;1.00;;;;;;;;;;5092221;28;20063;-78
2024/02/09 11:09:33;;;;;;;3.72;1.13;;;;;;;;;;5061889;28;20033;-78
2024/02/09 11:12:05;;;;;;;2.35;1.17;;;;;;;;;;5061871;28;20041;-78
2024/02/09 11:14:37;;;;;;;2.20;0.60;;;;;;;;;;5086627;28;20049;-78
2024/02/09 11:17:10;;;;;;;4.63;1.30;;;;;;;;;;5071876;28;20053;-78
2024/02/09 11:19:40;;;;;;;2.17;0.80;;;;;;;;;;5078250;28;20358;-78
2024/02/09 11:22:11;;;;;;;2.28;0.93;;;;;;;;;;5061820;28;20053;-78
2024/02/09 11:24:45;;;;;;;2.85;1.40;;;;;;;;;;5064381;28;20053;-78
2024/02/09 11:27:14;;;;;;;1.08;0.75;;;;;;;;;;5069798;28;20053;-78
2024/02/09 11:29:44;;;;;;;3.15;1.00;;;;;;;;;;5076703;28;20091;-78
2024/02/09 11:32:13;;;;;;;1.52;0.77;;;;;;;;;;5068636;28;20049;-78
2024/02/09 11:34:47;;;;;;;1.77;1.00;;;;;;;;;;5066954;28;20453;-78
2024/02/09 11:37:17;;;;;;;3.63;1.20;;;;;;;;;;5053675;28;20052;-78
2024/02/09 11:39:46;;;;;;;4.72;1.48;;;;;;;;;;5068869;28;20399;-78
2024/02/09 11:42:19;;;;;;;3.35;1.52;;;;;;;;;;5052929;28;20055;-78
2024/02/09 11:45:04;;;;;;;3.03;0.60;;;;;;;;;;5052627;28;20048;-78
2024/02/09 11:47:37;;;;;;;1.98;0.98;;;;;;;;;;5052646;28;20136;-78
2024/02/09 11:50:21;;;;;;;3.92;0.80;;;;;;;;;;5052188;28;20061;-78
2024/02/09 11:52:51;;;;;;;3.80;0.93;;;;;;;;;;5051917;28;20056;-78
2024/02/09 11:55:52;;;;;;;2.72;1.45;;;;;;;;;;5053847;28;20049;-78
2024/02/09 11:58:20;;;;;;;2.92;1.02;;;;;;;;;;5052542;28;20052;-78
2024/02/09 12:00:51;;;;;;;2.58;0.98;;;;;;;;;;5036019;28;20304;-79
2024/02/09 12:03:19;;;;;;;4.80;1.20;;;;;;;;;;5052240;28;20053;-78
2024/02/09 12:05:50;;;;;;;2.65;0.77;;;;;;;;;;5060288;28;20116;-78
2024/02/09 12:08:18;;;;;;;5.32;1.00;;;;;;;;;;5073588;28;20079;-78
2024/02/09 12:10:50;;;;;;;2.20;1.13;;;;;;;;;;5089881;28;20055;-78
2024/02/09 12:13:20;;;;;;;4.10;1.35;;;;;;;;;;5058084;28;20475;-78
2024/02/09 12:15:48;;;;;;;2.33;0.93;;;;;;;;;;5042423;28;20053;-78
2024/02/09 12:18:22;;;;;;;2.53;0.63;;;;;;;;;;5035946;28;20118;-78
2024/02/09 12:20:50;;;;;;;2.63;1.08;;;;;;;;;;5068722;28;20574;-78
2024/02/09 12:23:18;;;;;;;4.18;1.23;;;;;;;;;;5068472;28;20456;-78
2024/02/09 12:25:48;;;;;;;2.15;0.93;;;;;;;;;;5067586;28;20072;-78
2024/02/09 12:28:22;;;;;;;2.88;1.00;;;;;;;;;;5067140;28;20056;-78
2024/02/09 12:30:51;;;;;;;3.60;0.90;;;;;;;;;;5067651;28;20048;-78
2024/02/09 12:33:19;;;;;;;5.43;3.20;;;;;;;;;;5051504;28;20056;-78
2024/02/09 12:35:52;;;;;;;3.60;1.67;;;;;;;;;;5052380;28;20530;-78
2024/02/09 12:38:22;;;;;;;5.55;2.58;;;;;;;;;;5051267;28;20059;-78
2024/02/09 12:40:56;;;;;;;3.95;2.05;;;;;;;;;;5050997;28;20541;-78
2024/02/09 12:43:25;;;;;;;3.47;0.77;;;;;;;;;;5067602;28;20560;-78
2024/02/09 12:46:00;;;;;;;2.70;0.95;;;;;;;;;;5067343;28;20084;-78
2024/02/09 12:48:28;;;;;;;5.18;3.42;;;;;;;;;;5051512;28;20048;-78
2024/02/09 12:51:04;;;;;;;5.35;3.05;;;;;;;;;;5066927;28;20426;-78
2024/02/09 12:53:36;;;;;;;6.55;3.45;;;;;;;;;;5067326;28;20053;-78
2024/02/09 12:56:04;;;;;;;9.25;5.25;;;;;;;;;;5051403;28;20533;-78
2024/02/09 12:58:32;;;;;;;5.05;2.67;;;;;;;;;;5067282;28;20049;-78
2024/02/09 13:01:01;;;;;;;2.92;1.92;;;;;;;;;;5034549;28;20049;-78
2024/02/09 13:03:30;;;;;;;4.53;1.30;;;;;;;;;;5067567;28;20566;-78
2024/02/09 13:05:58;;;;;;;5.38;1.60;;;;;;;;;;5066978;28;20057;-78
2024/02/09 13:08:29;;;;;;;3.97;1.30;;;;;;;;;;5067139;28;20103;-78
2024/02/09 13:10:57;;;;;;;1.33;0.77;;;;;;;;;;5066971;28;20470;-78
2024/02/09 13:13:25;;;;;;;2.25;0.85;;;;;;;;;;5067191;28;20140;-78
2024/02/09 13:15:52;;;;;;;4.20;0.77;;;;;;;;;;5033967;28;20491;-78
2024/02/09 13:18:20;;;;;;;1.63;0.93;;;;;;;;;;5067445;28;20053;-78
2024/02/09 13:20:48;;;;;;;2.60;0.95;;;;;;;;;;5050444;28;20049;-78
2024/02/09 13:23:23;;;;;;;3.40;1.50;;;;;;;;;;5066852;28;20048;-78
2024/02/09 13:25:57;;;;;;;2.47;1.00;;;;;;;;;;5051344;28;20044;-78
2024/02/09 13:28:26;;;;;;;2.25;1.10;;;;;;;;;;5050696;28;20502;-79
2024/02/09 13:30:54;;;;;;;1.30;0.57;;;;;;;;;;5051379;28;20061;-79
2024/02/09 13:33:22;;;;;;;4.50;1.17;;;;;;;;;;5050697;28;20051;-79
2024/02/09 13:35:50;;;;;;;4.00;1.00;;;;;;;;;;5050463;28;20053;-78
2024/02/09 13:38:18;;;;;;;1.90;0.82;;;;;;;;;;5067100;28;20057;-79
2024/02/09 13:40:46;;;;;;;4.32;1.00;;;;;;;;;;5070921;28;20140;-78
2024/02/09 13:43:14;;;;;;;3.80;1.33;;;;;;;;;;5071028;28;20051;-78
2024/02/09 13:45:44;;;;;;;1.83;0.98;;;;;;;;;;5050626;28;20049;-78
2024/02/09 13:48:12;;;;;;;5.72;1.20;;;;;;;;;;5038404;28;20045;-78
2024/02/09 13:50:42;;;;;;;4.90;1.20;;;;;;;;;;5082746;28;20140;-79
2024/02/09 13:53:11;;;;;;;1.58;0.73;;;;;;;;;;5071236;28;20089;-78
2024/02/09 13:55:39;;;;;;;2.13;0.93;;;;;;;;;;5071372;28;20059;-78
2024/02/09 13:58:07;;;;;;;1.50;1.15;;;;;;;;;;5056340;28;20056;-78
2024/02/09 14:00:34;;;;;;;3.67;0.93;;;;;;;;;;5070772;28;20049;-78
2024/02/09 14:03:02;;;;;;;2.53;0.93;;;;;;;;;;5070551;28;20056;-78
2024/02/09 14:05:30;;;;;;;2.88;1.20;;;;;;;;;;5070648;28;20112;-78
2024/02/09 14:07:58;;;;;;;2.58;1.42;;;;;;;;;;5070604;28;20052;-78
2024/02/09 14:10:25;;;;;;;3.58;1.42;;;;;;;;;;5054414;28;20130;-78
2024/02/09 14:12:59;;;;;;;1.80;1.30;;;;;;;;;;5037499;28;20414;-78
2024/02/09 14:15:26;;;;;;;3.25;1.58;;;;;;;;;;5053969;28;20053;-79
2024/02/09 14:17:55;;;;;;;3.50;1.20;;;;;;;;;;5055113;28;20511;-79
2024/02/09 14:20:30;;;;;;;1.15;1.00;;;;;;;;;;5070429;28;20049;-78
2024/02/09 14:22:59;;;;;;;4.30;1.27;;;;;;;;;;5070354;28;20079;-78
2024/02/09 14:25:30;;;;;;;2.25;0.98;;;;;;;;;;5069799;28;20483;-79
2024/02/09 14:27:58;;;;;;;4.15;1.27;;;;;;;;;;5053735;28;20048;-78
2024/02/09 14:30:26;;;;;;;2.50;1.33;;;;;;;;;;5070283;28;20086;-79
2024/02/09 14:32:54;;;;;;;2.53;1.30;;;;;;;;;;5053777;28;20102;-78
2024/02/09 14:35:22;;;;;;;5.28;1.30;;;;;;;;;;5037271;28;20060;-79
2024/02/09 14:37:50;;;;;;;5.75;1.35;;;;;;;;;;5069960;28;20053;-78
2024/02/09 14:40:22;;;;;;;4.68;1.17;;;;;;;;;;5069859;28;20163;-78
2024/02/09 14:42:50;;;;;;;3.05;1.45;;;;;;;;;;5069630;28;20358;-78
2024/02/09 14:45:18;;;;;;;6.63;1.15;;;;;;;;;;5069748;28;20049;-78
2024/02/09 14:47:45;;;;;;;4.72;1.65;;;;;;;;;;5036461;28;20053;-78
2024/02/09 14:50:13;;;;;;;2.38;0.90;;;;;;;;;;5053017;28;20064;-78
2024/02/09 14:52:44;;;;;;;4.72;1.70;;;;;;;;;;5069498;28;20085;-79
2024/02/09 14:55:13;;;;;;;8.85;3.30;;;;;;;;;;5037048;28;20107;-78
2024/02/09 14:57:43;;;;;;;8.32;4.10;;;;;;;;;;5069935;28;20077;-79
2024/02/09 15:00:15;;;;;;;3.33;1.83;;;;;;;;;;5069087;28;20057;-78
2024/02/09 15:02:47;;;;;;;4.10;1.55;;;;;;;;;;5069015;28;20052;-78
2024/02/09 15:05:16;;;;;;;5.25;2.00;;;;;;;;;;5053133;28;20525;-79
2024/02/09 15:07:45;;;;;;;8.90;7.45;;;;;;;;;;5052525;28;20041;-79
2024/02/09 15:10:13;;;;;;;7.75;4.20;;;;;;;;;;5069343;28;20080;-79
2024/02/09 15:12:41;;;;;;;7.82;4.18;;;;;;;;;;5069162;28;20053;-78
2024/02/09 15:15:09;;;;;;;8.10;4.85;;;;;;;;;;5069037;28;20075;-79
2024/02/09 15:17:37;;;;;;;8.52;3.30;;;;;;;;;;5052387;28;20053;-78
2024/02/09 15:20:06;;;;;;;4.30;2.67;;;;;;;;;;5036410;28;20400;-78
2024/02/09 15:22:34;;;;;;;3.47;2.60;;;;;;;;;;5069207;28;20111;-78
2024/02/09 15:25:02;;;;;;;4.72;1.63;;;;;;;;;;5064312;28;20140;-78
2024/02/09 15:27:30;;;;;;;3.53;1.42;;;;;;;;;;5056246;28;20506;-78
2024/02/09 15:29:58;;;;;;;3.38;1.73;;;;;;;;;;5036463;28;20569;-78
2024/02/09 15:32:29;;;;;;;2.00;1.50;;;;;;;;;;5052786;28;20098;-79
2024/02/09 15:34:57;;;;;;;4.75;1.92;;;;;;;;;;5043811;28;20049;-78
2024/02/09 15:37:26;;;;;;;5.05;1.50;;;;;;;;;;5035932;28;20065;-79
2024/02/09 15:39:54;;;;;;;2.50;1.23;;;;;;;;;;5052135;28;20052;-78
2024/02/09 15:42:22;;;;;;;4.70;1.73;;;;;;;;;;5053481;28;20084;-78
2024/02/09 15:44:56;;;;;;;3.83;1.75;;;;;;;;;;5068468;28;20059;-79
2024/02/09 15:47:27;;;;;;;4.13;1.63;;;;;;;;;;5053639;28;20582;-79
2024/02/09 15:49:55;;;;;;;2.67;1.35;;;;;;;;;;5037799;28;20048;-79
2024/02/09 15:52:22;;;;;;;4.03;2.03;;;;;;;;;;5070092;28;20067;-79
2024/02/09 15:54:53;;;;;;;3.65;1.73;;;;;;;;;;5039302;28;20061;-79
2024/02/09 15:57:26;;;;;;;5.47;2.08;;;;;;;;;;5072539;28;20572;-79
2024/02/09 15:59:54;;;;;;;5.25;1.90;;;;;;;;;;5057710;28;20144;-79
2024/02/09 16:02:22;;;;;;;8.50;2.67;;;;;;;;;;5072763;28;20055;-79
2024/02/09 16:04:50;;;;;;;5.13;2.20;;;;;;;;;;5059060;28;20117;-79
2024/02/09 16:07:20;;;;;;;2.80;1.75;;;;;;;;;;5055483;28;20057;-79
2024/02/09 16:09:52;;;;;;;1.85;1.50;;;;;;;;;;5056142;28;20124;-79
2024/02/09 16:12:19;;;;;;;3.28;1.77;;;;;;;;;;5060957;28;20052;-79
2024/02/09 16:14:57;;;;;;;5.88;1.73;;;;;;;;;;5061273;28;20053;-79
2024/02/09 16:17:28;;;;;;;2.83;1.20;;;;;;;;;;5062435;28;20106;-79
2024/02/09 16:19:56;;;;;;;1.92;1.52;;;;;;;;;;5062361;28;20052;-80
2024/02/09 16:22:28;;;;;;;5.43;2.03;;;;;;;;;;5078624;28;20527;-80
2024/02/09 16:24:56;;;;;;;3.30;2.25;;;;;;;;;;5045434;28;20053;-80
2024/02/09 16:27:28;;;;;;;5.43;2.45;;;;;;;;;;5078645;28;20418;-80
2024/02/09 16:30:02;;;;;;;6.00;2.90;;;;;;;;;;5062252;28;20060;-80
2024/02/09 16:32:32;;;;;;;4.35;2.53;;;;;;;;;;5044848;28;20283;-80
2024/02/09 16:35:00;;;;;;;6.38;2.90;;;;;;;;;;5079319;28;20083;-80
2024/02/09 16:37:32;;;;;;;6.78;2.42;;;;;;;;;;5063217;28;20057;-80
2024/02/09 16:39:59;;;;;;;5.82;2.97;;;;;;;;;;5063141;28;20087;-80
2024/02/09 16:42:31;;;;;;;3.78;2.50;;;;;;;;;;5054132;28;20534;-80
2024/02/09 16:45:02;;;;;;;3.83;2.75;;;;;;;;;;5041712;28;20048;-80
2024/02/09 16:47:33;;;;;;;8.60;2.67;;;;;;;;;;5074897;28;20055;-80
2024/02/09 16:50:07;;;;;;;4.35;2.30;;;;;;;;;;5048024;28;20064;-80